createdAt,value
2023-02-17T00:01:32.893Z,7.00
2023-02-17T00:04:00.284Z,7.00
2023-02-17T00:06:28.260Z,7.00
2023-02-17T00:08:55.401Z,7.00
2023-02-17T00:11:22.514Z,7.10
2023-02-17T00:13:49.403Z,7.10
2023-02-17T00:16:18.505Z,7.10
2023-02-17T00:18:46.146Z,7.10
2023-02-17T00:21:18.783Z,7.10
2023-02-17T00:23:46.505Z,7.10
2023-02-17T00:26:13.828Z,7.10
2023-02-17T00:28:41.982Z,7.10
2023-02-17T00:31:14.656Z,7.10
2023-02-17T00:33:41.557Z,7.20
2023-02-17T00:36:10.914Z,7.10
2023-02-17T00:38:37.831Z,7.20
2023-02-17T00:41:04.685Z,7.20
2023-02-17T00:43:32.731Z,7.20
2023-02-17T00:45:59.722Z,7.30
2023-02-17T00:48:26.545Z,7.30
2023-02-17T00:50:53.394Z,7.20
2023-02-17T00:53:20.438Z,7.20
2023-02-17T00:55:47.352Z,7.20
2023-02-17T00:58:14.388Z,7.30
2023-02-17T01:00:41.118Z,7.50
2023-02-17T01:03:08.010Z,7.40
2023-02-17T01:05:35.020Z,7.50
2023-02-17T01:08:01.828Z,7.50
2023-02-17T01:10:28.857Z,7.50
2023-02-17T01:12:55.940Z,7.50
2023-02-17T01:15:22.704Z,7.30
2023-02-17T01:17:49.610Z,7.40
2023-02-17T01:20:16.514Z,7.30
2023-02-17T01:22:43.405Z,7.30
2023-02-17T01:25:10.288Z,7.30
2023-02-17T01:27:37.230Z,7.20
2023-02-17T01:30:04.620Z,7.10
2023-02-17T01:32:31.396Z,7.00
2023-02-17T01:34:58.209Z,7.00
2023-02-17T01:37:25.028Z,7.00
2023-02-17T01:39:54.476Z,7.00
2023-02-17T01:42:21.262Z,7.00
2023-02-17T01:45:07.508Z,7.10
2023-02-17T01:47:34.361Z,7.10
2023-02-17T01:50:01.652Z,7.10
2023-02-17T01:52:28.563Z,7.10
2023-02-17T01:54:59.787Z,7.10
2023-02-17T01:57:30.354Z,7.30
2023-02-17T01:59:57.426Z,7.20
2023-02-17T02:02:24.994Z,7.30
2023-02-17T02:04:52.718Z,7.60
2023-02-17T02:07:26.481Z,7.60
2023-02-17T02:09:54.992Z,7.90
2023-02-17T02:12:21.782Z,8.30
2023-02-17T02:14:49.566Z,8.30
2023-02-17T02:17:35.330Z,8.50
2023-02-17T02:20:08.827Z,8.80
2023-02-17T02:22:50.294Z,8.90
2023-02-17T02:25:17.122Z,9.00
2023-02-17T02:28:03.022Z,9.20
2023-02-17T02:30:33.064Z,9.30
2023-02-17T02:33:04.394Z,9.40
2023-02-17T02:35:50.059Z,9.60
2023-02-17T02:38:16.982Z,9.60
2023-02-17T02:40:46.210Z,9.60
2023-02-17T02:43:14.586Z,9.60
2023-02-17T02:45:42.027Z,9.60
2023-02-17T02:48:08.851Z,9.70
2023-02-17T02:50:41.869Z,9.70
2023-02-17T02:53:17.797Z,9.90
2023-02-17T02:55:51.236Z,9.90
2023-02-17T02:58:22.620Z,9.90
2023-02-17T03:00:54.189Z,9.90
2023-02-17T03:03:26.292Z,9.90
2023-02-17T03:06:13.779Z,10.00
2023-02-17T03:08:44.217Z,9.90
2023-02-17T03:11:11.451Z,9.90
2023-02-17T03:13:39.614Z,9.90
2023-02-17T03:16:09.102Z,9.90
2023-02-17T03:18:36.214Z,9.90
2023-02-17T03:21:06.531Z,9.90
2023-02-17T03:23:33.358Z,9.90
2023-02-17T03:26:01.357Z,9.80
2023-02-17T03:28:28.823Z,10.00
2023-02-17T03:30:57.413Z,9.90
2023-02-17T03:33:24.204Z,9.90
2023-02-17T03:35:52.357Z,9.90
2023-02-17T03:38:19.109Z,9.90
2023-02-17T03:40:45.913Z,10.00
2023-02-17T03:43:12.710Z,10.10
2023-02-17T03:45:39.572Z,10.10
2023-02-17T03:48:06.720Z,10.10
2023-02-17T03:50:33.453Z,10.10
2023-02-17T03:53:00.208Z,10.00
2023-02-17T03:55:26.979Z,10.10
2023-02-17T03:57:53.727Z,10.00
2023-02-17T04:00:21.812Z,10.00
2023-02-17T04:02:50.934Z,9.90
2023-02-17T04:05:17.729Z,10.00
2023-02-17T04:07:44.522Z,9.90
2023-02-17T04:10:11.466Z,9.90
2023-02-17T04:12:38.319Z,9.90
2023-02-17T04:15:05.304Z,10.00
2023-02-17T04:17:32.319Z,10.00
2023-02-17T04:19:59.048Z,10.00
2023-02-17T04:22:25.868Z,10.00
2023-02-17T04:24:52.610Z,10.00
2023-02-17T04:27:19.420Z,10.00
2023-02-17T04:29:47.347Z,10.00
2023-02-17T04:32:14.211Z,10.00
2023-02-17T04:34:40.992Z,10.00
2023-02-17T04:37:07.766Z,10.00
2023-02-17T04:39:34.528Z,10.00
2023-02-17T04:42:01.322Z,10.00
2023-02-17T04:44:28.101Z,10.00
2023-02-17T04:46:54.999Z,10.00
2023-02-17T04:49:21.774Z,10.00
2023-02-17T04:51:48.792Z,10.00
2023-02-17T04:54:15.562Z,10.00
2023-02-17T04:56:42.407Z,10.00
2023-02-17T04:59:09.319Z,10.00
2023-02-17T05:01:36.257Z,10.00
2023-02-17T05:04:03.043Z,9.90
2023-02-17T05:06:29.807Z,9.90
2023-02-17T05:08:56.675Z,9.90
2023-02-17T05:11:23.564Z,9.90
2023-02-17T05:13:50.303Z,9.80
2023-02-17T05:16:17.149Z,9.80
2023-02-17T05:18:43.921Z,9.80
2023-02-17T05:21:10.698Z,9.80
2023-02-17T05:23:41.216Z,9.90
2023-02-17T05:26:08.922Z,9.80
2023-02-17T05:28:36.592Z,9.70
2023-02-17T05:31:04.211Z,9.80
2023-02-17T05:33:31.106Z,9.90
2023-02-17T05:36:01.486Z,9.90
2023-02-17T05:38:28.245Z,9.90
2023-02-17T05:40:55.021Z,9.90
2023-02-17T05:43:21.862Z,9.80
2023-02-17T05:45:48.606Z,9.90
2023-02-17T05:48:15.484Z,9.90
2023-02-17T05:50:42.365Z,9.90
2023-02-17T05:53:09.280Z,10.00
2023-02-17T05:55:36.232Z,10.00
2023-02-17T05:58:03.002Z,9.90
2023-02-17T06:00:30.141Z,9.90
2023-02-17T06:02:57.035Z,9.90
2023-02-17T06:05:23.903Z,10.00
2023-02-17T06:07:50.827Z,10.00
2023-02-17T06:10:17.657Z,10.00
2023-02-17T06:12:44.426Z,10.00
2023-02-17T06:15:11.245Z,10.00
2023-02-17T06:17:38.266Z,10.00
2023-02-17T06:20:05.801Z,10.00
2023-02-17T06:22:32.591Z,9.90
2023-02-17T06:24:59.529Z,10.00
2023-02-17T06:27:26.298Z,10.00
2023-02-17T06:29:53.075Z,10.00
2023-02-17T06:32:19.910Z,9.90
2023-02-17T06:34:46.727Z,10.00
2023-02-17T06:37:13.526Z,9.90
2023-02-17T06:39:40.310Z,9.90
2023-02-17T06:42:07.030Z,9.90
2023-02-17T06:44:33.748Z,9.80
2023-02-17T06:47:00.526Z,9.80
2023-02-17T06:49:27.363Z,9.90
2023-02-17T06:51:54.293Z,9.90
2023-02-17T06:54:21.183Z,9.90
2023-02-17T06:56:47.934Z,9.90
2023-02-17T06:59:14.690Z,9.70
2023-02-17T07:01:41.937Z,9.90
2023-02-17T07:04:08.834Z,9.90
2023-02-17T07:06:35.652Z,9.90
2023-02-17T07:09:02.830Z,9.90
2023-02-17T07:11:32.818Z,9.90
2023-02-17T07:14:00.028Z,9.90
2023-02-17T07:16:26.896Z,10.00
2023-02-17T07:18:53.715Z,10.00
2023-02-17T07:21:20.608Z,9.90
2023-02-17T07:23:48.408Z,10.00
2023-02-17T07:26:15.146Z,10.10
2023-02-17T07:28:41.922Z,10.00
2023-02-17T07:31:13.394Z,10.10
2023-02-17T07:33:40.957Z,10.10
2023-02-17T07:36:08.707Z,10.20
2023-02-17T07:38:36.308Z,10.10
2023-02-17T07:41:06.946Z,10.10
2023-02-17T07:43:33.811Z,10.10
2023-02-17T07:46:00.717Z,10.10
2023-02-17T07:48:27.650Z,10.20
2023-02-17T07:50:54.455Z,10.10
2023-02-17T07:53:21.202Z,10.20
2023-02-17T07:55:48.254Z,10.20
2023-02-17T07:58:15.066Z,10.30
2023-02-17T08:00:41.927Z,10.30
2023-02-17T08:03:11.032Z,10.30
2023-02-17T08:05:41.732Z,10.20
2023-02-17T08:08:27.278Z,10.20
2023-02-17T08:11:12.774Z,10.30
2023-02-17T08:13:39.696Z,10.30
2023-02-17T08:16:06.765Z,10.30
2023-02-17T08:18:36.504Z,10.30
2023-02-17T08:21:04.405Z,10.30
2023-02-17T08:23:31.429Z,10.40
2023-02-17T08:25:59.237Z,10.20
2023-02-17T08:28:25.991Z,9.90
2023-02-17T08:30:52.829Z,9.80
2023-02-17T08:33:19.802Z,9.80
2023-02-17T08:35:46.654Z,9.80
2023-02-17T08:38:13.773Z,9.80
2023-02-17T08:40:40.532Z,9.90
2023-02-17T08:43:08.436Z,9.90
2023-02-17T08:45:37.055Z,10.00
2023-02-17T08:48:04.587Z,10.00
2023-02-17T08:50:31.725Z,10.00
2023-02-17T08:52:58.527Z,10.10
2023-02-17T08:55:25.383Z,10.20
2023-02-17T08:57:52.117Z,10.20
2023-02-17T09:00:19.025Z,10.20
2023-02-17T09:02:45.946Z,10.20
2023-02-17T09:05:13.750Z,10.30
2023-02-17T09:07:41.034Z,10.40
2023-02-17T09:10:08.753Z,10.40
2023-02-17T09:12:35.824Z,10.40
2023-02-17T09:15:02.567Z,10.50
2023-02-17T09:17:29.390Z,10.60
2023-02-17T09:19:56.297Z,10.60
2023-02-17T09:22:31.438Z,10.60
2023-02-17T09:24:59.123Z,10.70
2023-02-17T09:27:25.921Z,10.70
2023-02-17T09:29:52.717Z,10.70
2023-02-17T09:32:19.626Z,10.70
2023-02-17T09:34:55.675Z,10.80
2023-02-17T09:37:23.574Z,10.80
2023-02-17T09:39:50.403Z,10.70
2023-02-17T09:42:25.043Z,10.80
2023-02-17T09:44:55.748Z,10.70
2023-02-17T09:47:24.449Z,10.70
2023-02-17T09:49:54.384Z,10.80
2023-02-17T09:52:27.533Z,10.70
2023-02-17T09:55:13.718Z,10.40
2023-02-17T09:57:49.457Z,10.30
2023-02-17T10:00:17.979Z,10.10
2023-02-17T10:02:44.752Z,10.00
2023-02-17T10:05:14.827Z,10.00
2023-02-17T10:07:45.243Z,9.90
2023-02-17T10:10:15.680Z,9.90
2023-02-17T10:12:48.714Z,9.90
2023-02-17T10:15:19.103Z,10.00
2023-02-17T10:17:55.841Z,10.10
2023-02-17T10:20:22.937Z,10.10
2023-02-17T10:22:55.351Z,9.90
2023-02-17T10:25:33.883Z,9.80
2023-02-17T10:28:23.913Z,9.70
2023-02-17T10:31:03.814Z,9.70
2023-02-17T10:33:49.547Z,9.60
2023-02-17T10:36:35.185Z,9.60
2023-02-17T10:39:06.217Z,9.60
2023-02-17T10:41:34.702Z,9.60
2023-02-17T10:44:03.107Z,9.70
2023-02-17T10:46:31.335Z,9.80
2023-02-17T10:48:59.232Z,9.70
2023-02-17T10:51:27.445Z,9.70
2023-02-17T10:54:00.284Z,9.70
2023-02-17T10:56:40.068Z,9.80
2023-02-17T10:59:07.205Z,9.70
2023-02-17T11:01:34.538Z,9.90
2023-02-17T11:04:09.791Z,10.00
2023-02-17T11:06:42.013Z,10.10
2023-02-17T11:09:18.729Z,10.20
2023-02-17T11:11:58.997Z,10.20
2023-02-17T11:14:27.683Z,10.30
2023-02-17T11:16:59.191Z,10.40
2023-02-17T11:19:29.069Z,10.50
2023-02-17T11:21:57.288Z,10.60
2023-02-17T11:24:24.448Z,10.70
2023-02-17T11:27:11.632Z,10.80
2023-02-17T11:29:38.604Z,10.90
2023-02-17T11:32:09.743Z,11.20
2023-02-17T11:34:37.817Z,11.30
2023-02-17T11:37:13.755Z,11.40
2023-02-17T11:39:41.910Z,11.30
2023-02-17T11:42:21.047Z,11.30
2023-02-17T11:44:48.416Z,11.30
2023-02-17T11:47:24.347Z,11.40
2023-02-17T11:49:51.293Z,11.40
2023-02-17T11:52:18.003Z,11.50
2023-02-17T11:54:53.990Z,11.50
2023-02-17T11:57:41.897Z,11.60
2023-02-17T12:00:25.297Z,11.70
2023-02-17T12:02:52.143Z,11.70
2023-02-17T12:05:26.564Z,11.70
2023-02-17T12:08:02.602Z,11.70
2023-02-17T12:10:38.673Z,11.80
2023-02-17T12:13:11.329Z,11.70
2023-02-17T12:15:49.868Z,11.90
2023-02-17T12:18:27.192Z,11.90
2023-02-17T12:21:00.047Z,11.90
2023-02-17T12:23:45.755Z,11.90
2023-02-17T12:26:12.705Z,11.80
2023-02-17T12:28:48.198Z,11.70
2023-02-17T12:31:15.081Z,11.70
2023-02-17T12:34:02.160Z,11.60
2023-02-17T12:36:31.667Z,11.60
2023-02-17T12:39:03.080Z,11.50
2023-02-17T12:41:41.111Z,11.50
2023-02-17T12:44:17.293Z,11.50
2023-02-17T12:46:45.938Z,11.40
2023-02-17T12:49:16.744Z,11.40
2023-02-17T12:51:51.127Z,11.50
2023-02-17T12:54:18.286Z,11.50
2023-02-17T12:56:50.474Z,11.60
2023-02-17T12:59:19.318Z,11.60
2023-02-17T13:01:51.962Z,11.60
2023-02-17T13:04:19.828Z,11.60
2023-02-17T13:06:50.879Z,11.70
2023-02-17T13:09:23.778Z,11.70
2023-02-17T13:11:50.646Z,11.70
2023-02-17T13:14:26.366Z,11.70
2023-02-17T13:16:53.474Z,11.70
2023-02-17T13:19:32.060Z,11.80
2023-02-17T13:22:00.021Z,11.80
2023-02-17T13:24:37.321Z,11.80
2023-02-17T13:27:11.576Z,11.90
2023-02-17T13:29:38.601Z,11.80
2023-02-17T13:32:07.305Z,11.80
2023-02-17T13:34:44.406Z,11.80
2023-02-17T13:37:19.419Z,11.80
2023-02-17T13:39:46.621Z,11.80
2023-02-17T13:42:32.229Z,11.80
2023-02-17T13:44:59.452Z,11.70
2023-02-17T13:47:31.122Z,11.70
2023-02-17T13:49:58.035Z,11.70
2023-02-17T13:52:26.045Z,11.80
2023-02-17T13:54:53.078Z,11.90
2023-02-17T13:57:24.292Z,12.10
2023-02-17T13:59:51.261Z,12.10
2023-02-17T14:02:35.397Z,12.20
2023-02-17T14:05:10.695Z,12.20
2023-02-17T14:07:37.570Z,12.10
2023-02-17T14:10:04.539Z,12.20
2023-02-17T14:12:31.567Z,12.20
2023-02-17T14:14:58.290Z,12.20
2023-02-17T14:17:32.450Z,12.20
2023-02-17T14:20:00.849Z,12.30
2023-02-17T14:22:29.091Z,12.40
2023-02-17T14:25:00.578Z,12.60
2023-02-17T14:27:27.445Z,12.70
2023-02-17T14:29:54.305Z,12.80
2023-02-17T14:32:32.795Z,12.90
2023-02-17T14:35:10.244Z,13.00
2023-02-17T14:37:37.148Z,13.00
2023-02-17T14:40:05.507Z,13.10
2023-02-17T14:42:32.398Z,12.90
2023-02-17T14:44:59.151Z,12.70
2023-02-17T14:47:26.276Z,12.70
2023-02-17T14:49:53.185Z,12.70
2023-02-17T14:52:21.374Z,12.70
2023-02-17T14:54:48.206Z,12.60
2023-02-17T14:57:15.889Z,12.60
2023-02-17T14:59:43.173Z,12.40
2023-02-17T15:02:18.780Z,12.40
2023-02-17T15:04:45.751Z,12.40
2023-02-17T15:07:14.485Z,12.30
2023-02-17T15:09:41.716Z,12.30
2023-02-17T15:12:16.161Z,12.20
2023-02-17T15:14:43.161Z,12.10
2023-02-17T15:17:09.946Z,12.10
2023-02-17T15:19:36.830Z,12.00
2023-02-17T15:22:04.449Z,12.00
2023-02-17T15:24:33.581Z,11.90
2023-02-17T15:27:01.610Z,12.00
2023-02-17T15:29:28.689Z,11.90
2023-02-17T15:31:56.670Z,11.90
2023-02-17T15:34:25.987Z,12.00
2023-02-17T15:36:52.740Z,11.90
2023-02-17T15:39:20.101Z,11.90
2023-02-17T15:41:47.537Z,11.90
2023-02-17T15:44:22.502Z,11.90
2023-02-17T15:46:54.676Z,11.90
2023-02-17T15:49:21.946Z,11.90
2023-02-17T15:51:48.976Z,11.90
2023-02-17T15:54:19.192Z,11.90
2023-02-17T15:56:50.272Z,11.90
2023-02-17T15:59:22.438Z,11.90
2023-02-17T16:01:50.711Z,11.90
2023-02-17T16:04:17.579Z,11.90
2023-02-17T16:06:44.795Z,12.00
2023-02-17T16:09:11.564Z,12.00
2023-02-17T16:11:44.299Z,12.00
2023-02-17T16:14:16.479Z,12.00
2023-02-17T16:16:43.394Z,12.00
2023-02-17T16:19:11.756Z,12.00
2023-02-17T16:21:38.586Z,12.10
2023-02-17T16:24:05.533Z,12.10
2023-02-17T16:26:35.962Z,12.00
2023-02-17T16:29:03.741Z,12.00
2023-02-17T16:31:32.420Z,12.00
2023-02-17T16:34:00.465Z,12.00
2023-02-17T16:36:30.197Z,12.00
2023-02-17T16:38:57.027Z,12.00
2023-02-17T16:41:23.752Z,12.00
2023-02-17T16:43:50.570Z,12.00
2023-02-17T16:46:19.953Z,12.00
2023-02-17T16:48:46.876Z,12.00
2023-02-17T16:51:13.701Z,12.00
2023-02-17T16:53:40.474Z,12.00
2023-02-17T16:56:14.213Z,12.00
2023-02-17T16:58:41.075Z,12.00
2023-02-17T17:01:12.625Z,12.00
2023-02-17T17:03:40.463Z,12.00
2023-02-17T17:06:18.148Z,12.00
2023-02-17T17:08:45.086Z,12.00
2023-02-17T17:11:16.902Z,12.00
2023-02-17T17:13:44.025Z,12.00
2023-02-17T17:16:21.561Z,12.00
2023-02-17T17:18:48.528Z,12.00
2023-02-17T17:21:16.456Z,12.00
2023-02-17T17:23:43.662Z,12.00
2023-02-17T17:26:22.616Z,12.00
2023-02-17T17:28:50.274Z,12.00
2023-02-17T17:31:19.644Z,12.00
2023-02-17T17:33:47.428Z,12.00
2023-02-17T17:36:33.501Z,12.00
2023-02-17T17:39:03.081Z,12.00
2023-02-17T17:41:30.613Z,12.00
2023-02-17T17:43:57.954Z,12.00
2023-02-17T17:46:26.455Z,11.90
2023-02-17T17:48:53.309Z,11.90
2023-02-17T17:51:21.082Z,11.90
2023-02-17T17:53:48.121Z,12.00
2023-02-17T17:56:19.395Z,11.90
2023-02-17T17:58:46.412Z,11.90
2023-02-17T18:01:13.871Z,11.80
2023-02-17T18:03:41.197Z,11.80
2023-02-17T18:06:10.142Z,11.80
2023-02-17T18:08:37.150Z,11.80
2023-02-17T18:11:03.928Z,11.70
2023-02-17T18:13:31.778Z,11.60
2023-02-17T18:15:58.644Z,11.50
2023-02-17T18:18:25.598Z,11.50
2023-02-17T18:20:52.337Z,11.40
2023-02-17T18:23:19.152Z,11.40
2023-02-17T18:25:45.860Z,11.40
2023-02-17T18:28:12.709Z,11.40
2023-02-17T18:30:39.703Z,11.40
2023-02-17T18:33:06.493Z,11.40
2023-02-17T18:35:34.110Z,11.40
2023-02-17T18:38:00.883Z,11.40
2023-02-17T18:40:29.128Z,11.40
2023-02-17T18:42:56.078Z,11.40
2023-02-17T18:45:23.895Z,11.40
2023-02-17T18:47:50.641Z,11.40
2023-02-17T18:50:17.416Z,11.40
2023-02-17T18:52:44.318Z,11.30
2023-02-17T18:55:11.277Z,11.30
2023-02-17T18:57:38.294Z,11.30
2023-02-17T19:00:06.281Z,11.30
2023-02-17T19:02:35.030Z,11.40
2023-02-17T19:05:01.810Z,11.30
2023-02-17T19:07:28.614Z,11.30
2023-02-17T19:09:55.449Z,11.20
2023-02-17T19:12:22.358Z,11.20
2023-02-17T19:14:53.170Z,11.20
2023-02-17T19:17:20.054Z,11.20
2023-02-17T19:19:46.880Z,11.30
2023-02-17T19:22:13.857Z,11.20
2023-02-17T19:24:41.241Z,11.30
2023-02-17T19:27:08.355Z,11.30
2023-02-17T19:29:35.088Z,11.30
2023-02-17T19:32:03.147Z,11.20
2023-02-17T19:34:30.168Z,11.20
2023-02-17T19:36:56.965Z,11.20
2023-02-17T19:39:23.993Z,11.20
2023-02-17T19:41:50.800Z,11.20
2023-02-17T19:44:17.593Z,11.20
2023-02-17T19:46:44.557Z,11.20
2023-02-17T19:49:11.434Z,11.10
2023-02-17T19:51:38.318Z,11.10
2023-02-17T19:54:05.140Z,11.20
2023-02-17T19:56:32.668Z,11.20
2023-02-17T19:58:59.616Z,11.20
2023-02-17T20:01:27.526Z,11.20
2023-02-17T20:03:55.186Z,11.20
2023-02-17T20:06:30.014Z,11.20
2023-02-17T20:08:58.361Z,11.20
2023-02-17T20:11:25.698Z,11.30
2023-02-17T20:13:52.547Z,11.30
2023-02-17T20:16:19.484Z,11.30
2023-02-17T20:18:47.546Z,11.30
2023-02-17T20:21:15.623Z,11.30
2023-02-17T20:23:42.489Z,11.30
2023-02-17T20:26:12.048Z,11.30
2023-02-17T20:28:39.186Z,11.30
2023-02-17T20:31:06.597Z,11.30
2023-02-17T20:33:33.533Z,11.30
2023-02-17T20:36:00.694Z,11.30
2023-02-17T20:38:27.640Z,11.30
2023-02-17T20:40:54.561Z,11.30
2023-02-17T20:43:21.392Z,11.30
2023-02-17T20:45:49.225Z,11.30
2023-02-17T20:48:16.253Z,11.30
2023-02-17T20:50:43.773Z,11.30
2023-02-17T20:53:10.917Z,11.30
2023-02-17T20:55:37.750Z,11.30
2023-02-17T20:58:04.956Z,11.30
2023-02-17T21:00:31.818Z,11.30
2023-02-17T21:02:58.602Z,11.40
2023-02-17T21:05:26.317Z,11.40
2023-02-17T21:07:53.101Z,11.40
2023-02-17T21:10:22.088Z,11.40
2023-02-17T21:12:49.214Z,11.30
2023-02-17T21:15:16.223Z,11.30
2023-02-17T21:17:43.164Z,11.30
2023-02-17T21:20:11.099Z,11.30
2023-02-17T21:22:37.940Z,11.30
2023-02-17T21:25:04.949Z,11.30
2023-02-17T21:27:31.789Z,11.30
2023-02-17T21:29:58.628Z,11.30
2023-02-17T21:32:26.093Z,11.30
2023-02-17T21:34:52.882Z,11.40
2023-02-17T21:37:19.650Z,11.40
2023-02-17T21:39:46.440Z,11.40
2023-02-17T21:42:13.412Z,11.40
2023-02-17T21:44:52.359Z,11.40
2023-02-17T21:47:19.967Z,11.40
2023-02-17T21:49:46.990Z,11.40
2023-02-17T21:52:13.931Z,11.40
2023-02-17T21:54:40.758Z,11.30
2023-02-17T21:57:07.712Z,11.40
2023-02-17T21:59:34.509Z,11.40
2023-02-17T22:02:01.333Z,11.40
2023-02-17T22:04:28.229Z,11.40
2023-02-17T22:06:55.058Z,11.40
2023-02-17T22:09:21.927Z,11.40
2023-02-17T22:11:49.550Z,11.40
2023-02-17T22:14:20.120Z,11.40
2023-02-17T22:16:47.437Z,11.40
2023-02-17T22:19:15.666Z,11.40
2023-02-17T22:21:43.217Z,11.40
2023-02-17T22:24:10.006Z,11.40
2023-02-17T22:26:36.845Z,11.40
2023-02-17T22:29:04.182Z,11.40
2023-02-17T22:31:31.637Z,11.40
2023-02-17T22:33:59.610Z,11.50
2023-02-17T22:36:27.502Z,11.50
2023-02-17T22:38:54.608Z,11.50
2023-02-17T22:41:22.960Z,11.50
2023-02-17T22:43:50.351Z,11.50
2023-02-17T22:46:18.645Z,11.50
2023-02-17T22:48:46.629Z,11.50
2023-02-17T22:51:18.469Z,11.50
2023-02-17T22:53:45.379Z,11.50
2023-02-17T22:56:12.618Z,11.60
2023-02-17T22:58:39.615Z,11.50
2023-02-17T23:01:10.746Z,11.50
2023-02-17T23:03:38.066Z,11.60
2023-02-17T23:06:07.064Z,11.60
2023-02-17T23:08:34.430Z,11.60
2023-02-17T23:11:04.512Z,11.60
2023-02-17T23:13:31.732Z,11.60
2023-02-17T23:15:58.437Z,11.60
2023-02-17T23:18:25.265Z,11.60
2023-02-17T23:20:52.135Z,11.60
2023-02-17T23:23:19.519Z,11.60
2023-02-17T23:25:50.245Z,11.60
2023-02-17T23:28:17.973Z,11.60
2023-02-17T23:30:46.804Z,11.60
2023-02-17T23:33:14.433Z,11.70
2023-02-17T23:35:44.704Z,11.60
2023-02-17T23:38:15.452Z,11.60
2023-02-17T23:40:42.281Z,11.60
2023-02-17T23:43:09.381Z,11.70
2023-02-17T23:45:37.812Z,11.70
2023-02-17T23:48:05.687Z,11.70
2023-02-17T23:50:32.990Z,11.70
2023-02-17T23:52:59.798Z,11.80
2023-02-17T23:55:26.669Z,11.80
2023-02-17T23:57:53.409Z,11.80
